SCRR weather

Purrahuín Airport
Rio Bueno, Los Ríos Region, Chile

Public forecast

Using degrees Celsius for public forecast. Weather courtesy of forecast.io.

Closest aviation weather report (METAR) to Purrahuín Airport

Report is more than 6 hours old.

Closest report is Cañal Bajo Carlos - Hott Siebert Airport, 19.7 nm (36.4 km) SW. Retrieved 2020/01/27 21:00 UTC (13 hours ago):

SCJO 272100Z 28010KT CAVOK 26/14 Q1014

Closest aviation forecast (TAF) to Purrahuín Airport

Forecast is more than 12 hours old.

Closest forecast is Cañal Bajo Carlos - Hott Siebert Airport, 19.7 nm (36.4 km) SW. Retrieved 2020/01/27 12:33 UTC (21 hours ago):

TAF SCJO 271010Z 2712/2724 VRB03KT CAVOK TN10/2712Z TX26/2718Z BECMG 2716/2718 24006KT BECMG 2720/2722 SCT040 BKN060